Time;durP1;ratioP1;P1;durP2;ratioP2;P2;SDS_P1;SDS_P2;PMS_P1;PMS_P2;Temp;Humidity;BMP_temperature;BMP_pressure;BME280_temperature;BME280_humidity;BME280_pressure;Samples;Min_cycle;Max_cycle;Signal;HPM_P1;HPM_P2
2024/03/28 00:00:58;;;;;;;9.52;6.30;;;12.50;99.90;;;;;;5022667;28;20037;-74
2024/03/28 00:03:25;;;;;;;7.57;5.65;;;12.60;99.90;;;;;;5020441;28;20037;-74
2024/03/28 00:05:55;;;;;;;9.95;6.30;;;12.60;99.90;;;;;;5021631;28;20124;-75
2024/03/28 00:08:21;;;;;;;7.18;5.75;;;12.60;99.90;;;;;;5022856;28;20029;-75
2024/03/28 00:10:48;;;;;;;7.30;6.10;;;12.60;99.90;;;;;;5022407;28;20377;-75
2024/03/28 00:13:14;;;;;;;10.80;6.32;;;12.60;99.90;;;;;;5022444;28;20559;-75
2024/03/28 00:15:40;;;;;;;10.88;5.65;;;12.60;99.90;;;;;;5020066;28;20041;-74
2024/03/28 00:18:06;;;;;;;11.98;6.18;;;12.60;99.90;;;;;;5022598;28;20169;-74
2024/03/28 00:20:31;;;;;;;11.57;6.95;;;12.60;99.90;;;;;;5023582;28;20047;-75
2024/03/28 00:22:57;;;;;;;7.70;6.45;;;12.50;99.90;;;;;;5022266;28;20666;-75
2024/03/28 00:25:23;;;;;;;10.25;5.82;;;12.50;99.90;;;;;;5022689;28;20029;-75
2024/03/28 00:27:49;;;;;;;10.07;6.50;;;12.50;99.90;;;;;;5022181;28;20037;-68
2024/03/28 00:30:15;;;;;;;8.93;6.18;;;12.50;99.90;;;;;;5022417;28;20033;-68
2024/03/28 00:32:41;;;;;;;8.73;6.03;;;12.50;99.90;;;;;;5022229;28;20172;-75
2024/03/28 00:35:07;;;;;;;8.13;6.03;;;12.50;99.90;;;;;;5022034;28;20029;-75
2024/03/28 00:37:33;;;;;;;9.77;6.13;;;12.40;99.90;;;;;;5022496;28;20029;-74
2024/03/28 00:39:58;;;;;;;8.43;5.95;;;12.40;99.90;;;;;;5023062;28;20029;-75
2024/03/28 00:42:24;;;;;;;8.93;6.72;;;12.40;99.90;;;;;;5022091;28;20472;-75
2024/03/28 00:44:50;;;;;;;10.38;5.90;;;12.40;99.90;;;;;;5020384;28;20033;-75
2024/03/28 00:47:16;;;;;;;9.90;6.40;;;12.30;99.90;;;;;;5021715;28;20033;-76
2024/03/28 00:49:41;;;;;;;8.13;6.35;;;12.30;99.90;;;;;;5021679;28;20117;-76
2024/03/28 00:52:07;;;;;;;8.38;5.80;;;12.20;99.90;;;;;;5026401;22;20046;-68
2024/03/28 00:54:33;;;;;;;12.88;6.55;;;12.20;99.90;;;;;;4995769;28;20026;-68
2024/03/28 00:56:59;;;;;;;11.95;6.90;;;12.20;99.90;;;;;;4999439;28;20034;-68
2024/03/28 00:59:24;;;;;;;7.47;6.38;;;12.20;99.90;;;;;;4997466;28;20061;-67
2024/03/28 01:01:50;;;;;;;7.30;6.13;;;12.10;99.90;;;;;;4998312;28;20126;-68
2024/03/28 01:04:16;;;;;;;11.75;6.63;;;12.10;99.90;;;;;;4997940;28;20057;-68
2024/03/28 01:06:42;;;;;;;8.70;6.45;;;12.00;99.90;;;;;;4999811;28;20136;-68
2024/03/28 01:09:08;;;;;;;8.70;6.47;;;12.00;99.90;;;;;;4999734;28;20153;-68
2024/03/28 01:11:34;;;;;;;8.23;5.97;;;12.00;99.90;;;;;;5001477;28;20045;-68
2024/03/28 01:13:59;;;;;;;9.13;5.93;;;12.00;99.90;;;;;;4997345;28;20038;-68
2024/03/28 01:16:25;;;;;;;11.48;6.47;;;12.00;99.90;;;;;;4999784;28;20045;-68
2024/03/28 01:18:52;;;;;;;12.90;7.05;;;11.90;99.90;;;;;;5001327;28;20026;-68
2024/03/28 01:21:18;;;;;;;7.60;6.47;;;11.90;99.90;;;;;;4998064;28;20026;-68
2024/03/28 01:23:43;;;;;;;14.30;7.30;;;11.80;99.90;;;;;;5001649;28;20398;-68
2024/03/28 01:26:09;;;;;;;10.38;6.40;;;11.70;99.90;;;;;;5001575;28;20037;-68
2024/03/28 01:28:35;;;;;;;11.67;6.63;;;11.70;99.90;;;;;;5001753;28;20034;-68
2024/03/28 01:31:04;;;;;;;10.70;6.53;;;11.60;99.90;;;;;;4999530;28;20050;-68
2024/03/28 01:33:31;;;;;;;11.32;7.28;;;11.60;99.90;;;;;;4996321;28;20722;-68
2024/03/28 01:35:56;;;;;;;9.93;6.70;;;11.60;99.90;;;;;;4999172;28;20042;-68
2024/03/28 01:38:22;;;;;;;9.20;6.72;;;11.70;99.90;;;;;;4997819;28;20088;-68
2024/03/28 01:40:48;;;;;;;13.85;7.22;;;11.60;99.90;;;;;;4998260;28;20096;-68
2024/03/28 01:43:14;;;;;;;11.45;7.50;;;11.60;99.90;;;;;;4998900;28;20041;-68
2024/03/28 01:45:41;;;;;;;10.27;6.63;;;11.60;99.90;;;;;;4999885;28;20038;-69
2024/03/28 01:48:07;;;;;;;9.73;7.13;;;11.60;99.90;;;;;;4995302;28;20124;-69
2024/03/28 01:50:34;;;;;;;11.25;6.22;;;11.50;99.90;;;;;;5001402;28;20073;-68
2024/03/28 01:53:00;;;;;;;9.57;6.43;;;11.50;99.90;;;;;;5000068;28;20048;-68
2024/03/28 01:55:26;;;;;;;9.35;6.57;;;11.60;99.90;;;;;;4998936;28;20346;-68
2024/03/28 01:57:52;;;;;;;10.10;6.40;;;11.60;99.90;;;;;;5000331;28;20080;-68
2024/03/28 02:00:19;;;;;;;11.63;6.78;;;11.60;99.90;;;;;;5001745;28;20497;-74
2024/03/28 02:02:45;;;;;;;9.50;6.80;;;11.60;99.90;;;;;;5002885;28;21007;-74
2024/03/28 02:05:11;;;;;;;14.52;6.47;;;11.50;99.90;;;;;;5000278;28;20034;-74
2024/03/28 02:07:36;;;;;;;8.38;6.38;;;11.50;99.90;;;;;;5001737;28;20066;-75
2024/03/28 02:10:02;;;;;;;9.60;6.90;;;11.50;99.90;;;;;;5003409;28;20037;-75
2024/03/28 02:12:31;;;;;;;9.13;6.38;;;11.40;99.90;;;;;;5002502;28;20109;-75
2024/03/28 02:14:57;;;;;;;9.00;7.00;;;11.40;99.90;;;;;;5004943;28;20630;-74
2024/03/28 02:17:22;;;;;;;11.85;7.75;;;11.30;99.90;;;;;;5000979;28;20030;-74
2024/03/28 02:19:48;;;;;;;11.05;7.60;;;11.30;99.90;;;;;;5002774;28;20040;-75
2024/03/28 02:22:14;;;;;;;10.32;7.60;;;11.40;99.90;;;;;;5000636;28;20032;-76
2024/03/28 02:24:42;;;;;;;9.75;6.93;;;11.30;99.90;;;;;;5003087;28;20034;-75
2024/03/28 02:27:08;;;;;;;9.43;6.38;;;11.30;99.90;;;;;;5004640;28;20041;-75
2024/03/28 02:29:34;;;;;;;11.57;7.18;;;11.30;99.90;;;;;;5002487;28;20033;-75
2024/03/28 02:32:00;;;;;;;12.95;6.75;;;11.30;99.90;;;;;;5000280;28;20034;-75
2024/03/28 02:34:25;;;;;;;9.68;6.13;;;11.30;99.90;;;;;;5002045;28;20036;-75
2024/03/28 02:36:51;;;;;;;10.20;6.95;;;11.30;99.90;;;;;;5002573;28;20116;-75
2024/03/28 02:39:17;;;;;;;8.90;6.53;;;11.30;99.90;;;;;;5002526;28;20026;-75
2024/03/28 02:41:42;;;;;;;11.45;6.72;;;11.20;99.90;;;;;;5000637;28;20118;-75
2024/03/28 02:44:08;;;;;;;10.68;7.22;;;11.30;99.90;;;;;;5000178;28;20113;-75
2024/03/28 02:46:34;;;;;;;11.93;7.38;;;11.20;99.90;;;;;;5001232;28;20560;-75
2024/03/28 02:49:00;;;;;;;11.90;7.28;;;11.10;99.90;;;;;;5003422;28;20652;-76
2024/03/28 02:51:25;;;;;;;10.45;7.03;;;11.10;99.90;;;;;;4999979;28;20113;-75
2024/03/28 02:53:51;;;;;;;10.60;7.35;;;11.10;99.90;;;;;;4998680;28;20112;-75
2024/03/28 02:56:17;;;;;;;11.82;7.30;;;11.10;99.90;;;;;;5001860;28;20022;-75
2024/03/28 02:58:43;;;;;;;9.32;7.13;;;11.00;99.90;;;;;;5002420;28;20117;-75
2024/03/28 03:01:09;;;;;;;10.60;7.18;;;11.00;99.90;;;;;;5003576;28;20496;-74
2024/03/28 03:03:35;;;;;;;13.30;7.50;;;11.00;99.90;;;;;;5001303;28;20092;-74
2024/03/28 03:06:01;;;;;;;11.00;7.60;;;11.10;99.90;;;;;;5000488;28;20046;-75
2024/03/28 03:08:27;;;;;;;9.65;6.75;;;11.20;99.90;;;;;;4999532;28;20034;-75
2024/03/28 03:10:52;;;;;;;16.70;7.32;;;11.20;99.90;;;;;;4999872;28;20045;-75
2024/03/28 03:13:18;;;;;;;9.77;7.10;;;11.30;99.90;;;;;;5001048;28;20044;-75
2024/03/28 03:15:56;;;;;;;11.15;7.40;;;11.30;99.90;;;;;;5003638;28;20108;-74
2024/03/28 03:18:26;;;;;;;11.95;8.13;;;11.30;99.90;;;;;;4999374;28;20501;-75
2024/03/28 03:21:07;;;;;;;11.60;7.80;;;11.30;99.90;;;;;;5003342;28;20505;-75
2024/03/28 03:23:46;;;;;;;10.98;7.50;;;11.30;99.90;;;;;;5001300;28;20037;-75
2024/03/28 03:26:14;;;;;;;13.63;7.88;;;11.30;99.90;;;;;;5000245;28;20104;-75
2024/03/28 03:34:35;;;;;;;11.27;7.20;;;11.60;99.90;;;;;;5001691;28;20715;-75
2024/03/28 03:37:08;;;;;;;11.52;7.82;;;11.70;99.90;;;;;;5000087;28;20040;-74
2024/03/28 03:39:33;;;;;;;16.92;7.75;;;11.80;99.90;;;;;;4999180;28;20034;-74
2024/03/28 03:41:59;;;;;;;12.55;8.10;;;11.80;99.90;;;;;;4999713;28;20076;-74
2024/03/28 03:44:25;;;;;;;12.32;8.00;;;11.90;99.90;;;;;;4997533;28;20133;-75
2024/03/28 03:46:51;;;;;;;12.13;8.73;;;11.80;99.90;;;;;;4998838;28;20041;-75
2024/03/28 03:49:17;;;;;;;16.95;8.38;;;11.90;99.90;;;;;;5000687;28;20065;-76
2024/03/28 03:51:42;;;;;;;12.32;8.50;;;11.80;99.90;;;;;;5000448;28;20026;-75
2024/03/28 03:54:08;;;;;;;12.88;8.15;;;11.90;99.90;;;;;;5001094;28;20044;-75
2024/03/28 03:56:34;;;;;;;10.70;7.45;;;11.80;99.90;;;;;;5002369;28;20048;-75
2024/03/28 03:59:01;;;;;;;10.63;7.88;;;11.90;99.90;;;;;;4998597;28;20041;-75
2024/03/28 04:01:27;;;;;;;11.65;8.52;;;12.00;99.90;;;;;;4998957;28;20764;-75
2024/03/28 04:03:53;;;;;;;12.40;8.43;;;12.00;99.90;;;;;;5002313;28;20038;-74
2024/03/28 04:06:18;;;;;;;15.90;9.27;;;12.00;99.90;;;;;;4998682;28;20487;-74
2024/03/28 04:08:44;;;;;;;16.52;10.32;;;11.90;99.90;;;;;;4994837;28;20112;-74
2024/03/28 04:11:10;;;;;;;19.25;10.52;;;11.70;99.90;;;;;;5001639;28;20391;-74
2024/03/28 04:13:35;;;;;;;17.60;10.52;;;11.50;99.90;;;;;;4997213;28;20061;-75
2024/03/28 04:16:01;;;;;;;14.30;10.27;;;11.30;99.90;;;;;;5016264;28;20034;-74
2024/03/28 04:18:27;;;;;;;19.23;10.73;;;10.90;99.90;;;;;;4995608;28;20035;-75
2024/03/28 04:20:53;;;;;;;18.42;10.60;;;10.60;99.90;;;;;;5000415;28;20489;-76
2024/03/28 04:23:20;;;;;;;12.75;9.45;;;10.40;99.90;;;;;;4999750;28;20037;-75
2024/03/28 04:25:56;;;;;;;14.65;9.57;;;10.30;99.90;;;;;;4996786;28;20030;-75
2024/03/28 04:28:22;;;;;;;18.38;9.95;;;10.20;99.90;;;;;;5002231;28;20044;-75
2024/03/28 04:30:48;;;;;;;13.80;9.43;;;10.20;99.90;;;;;;5001536;28;20052;-75
2024/03/28 04:33:14;;;;;;;16.85;9.43;;;10.10;99.90;;;;;;4998651;28;20029;-75
2024/03/28 04:35:40;;;;;;;14.73;9.70;;;10.00;99.90;;;;;;4998694;28;20036;-74
2024/03/28 04:38:07;;;;;;;17.95;10.13;;;9.80;99.90;;;;;;4999963;28;20030;-74
2024/03/28 04:40:32;;;;;;;19.80;11.18;;;9.80;99.90;;;;;;5002051;28;20032;-74
2024/03/28 04:42:58;;;;;;;18.75;11.27;;;9.90;99.90;;;;;;5001522;28;20046;-75
2024/03/28 04:45:24;;;;;;;20.60;11.23;;;9.80;99.90;;;;;;4998195;28;20045;-75
2024/03/28 04:47:52;;;;;;;20.60;11.93;;;10.00;99.90;;;;;;5001925;28;20029;-76
2024/03/28 04:50:18;;;;;;;26.73;13.85;;;10.20;99.90;;;;;;4993310;28;20057;-76
2024/03/28 04:52:45;;;;;;;21.65;13.07;;;10.20;99.90;;;;;;4999281;28;20056;-75
2024/03/28 04:55:11;;;;;;;24.15;13.30;;;10.30;99.90;;;;;;5001947;28;20038;-75
2024/03/28 04:57:38;;;;;;;23.30;13.95;;;10.30;99.90;;;;;;5000518;28;20065;-75
2024/03/28 05:00:08;;;;;;;28.20;15.52;;;10.50;99.90;;;;;;5000571;28;20049;-75
2024/03/28 05:02:37;;;;;;;34.45;16.50;;;10.40;99.90;;;;;;4996501;28;20114;-74
2024/03/28 05:05:04;;;;;;;28.00;16.48;;;10.40;99.90;;;;;;4998137;28;20462;-68
2024/03/28 05:07:31;;;;;;;31.05;15.68;;;10.40;99.90;;;;;;4997220;28;20484;-68
2024/03/28 05:09:57;;;;;;;31.83;16.27;;;10.50;99.90;;;;;;5000405;28;20037;-68
2024/03/28 05:12:23;;;;;;;31.20;18.10;;;10.70;99.90;;;;;;4999357;28;20725;-68
2024/03/28 05:14:48;;;;;;;31.15;17.63;;;10.60;99.90;;;;;;4999832;28;20100;-67
2024/03/28 05:17:14;;;;;;;32.38;18.45;;;10.60;99.90;;;;;;4999684;28;20025;-67
2024/03/28 05:19:40;;;;;;;31.25;17.38;;;10.50;99.90;;;;;;5001644;28;20038;-68
2024/03/28 05:22:07;;;;;;;34.58;19.40;;;10.40;99.90;;;;;;4997779;28;20044;-68
2024/03/28 05:24:33;;;;;;;34.65;18.83;;;10.40;99.90;;;;;;5000848;28;20524;-74
2024/03/28 05:27:00;;;;;;;35.90;19.92;;;10.40;99.90;;;;;;4997413;28;20038;-73
2024/03/28 05:29:26;;;;;;;36.53;20.10;;;10.30;99.90;;;;;;4995833;28;20117;-73
2024/03/28 05:31:52;;;;;;;36.90;20.85;;;10.00;99.90;;;;;;5003032;28;20034;-77
2024/03/28 05:34:18;;;;;;;35.35;18.92;;;10.00;99.90;;;;;;4999420;28;20030;-75
2024/03/28 05:36:44;;;;;;;37.92;18.55;;;10.00;99.90;;;;;;5003420;28;20044;-76
2024/03/28 05:39:10;;;;;;;36.00;19.35;;;10.10;99.90;;;;;;5001933;28;20029;-75
2024/03/28 05:41:37;;;;;;;37.38;21.20;;;10.00;99.90;;;;;;5002068;28;20033;-75
2024/03/28 05:44:03;;;;;;;33.72;18.63;;;9.90;99.90;;;;;;4999985;28;20038;-76
2024/03/28 05:46:29;;;;;;;38.95;19.75;;;9.70;99.90;;;;;;5002201;28;20784;-77
2024/03/28 05:48:55;;;;;;;34.65;19.98;;;9.70;99.90;;;;;;5001962;28;20469;-75
2024/03/28 05:51:22;;;;;;;28.10;16.00;;;9.80;99.90;;;;;;4999861;28;20076;-74
2024/03/28 05:53:50;;;;;;;19.05;11.27;;;9.80;99.90;;;;;;5003410;28;20049;-75
2024/03/28 05:56:18;;;;;;;16.52;8.65;;;9.50;99.90;;;;;;5004423;28;20065;-75
2024/03/28 05:58:44;;;;;;;12.07;6.70;;;9.40;99.90;;;;;;5000737;28;20028;-75
2024/03/28 06:01:10;;;;;;;10.23;5.70;;;9.50;99.90;;;;;;4997833;28;20536;-74
2024/03/28 06:03:36;;;;;;;7.53;4.30;;;9.40;99.90;;;;;;5002031;28;20077;-75
2024/03/28 06:06:03;;;;;;;57.65;20.25;;;9.40;99.90;;;;;;5004444;28;20059;-76
2024/03/28 06:08:29;;;;;;;10.30;6.38;;;9.50;99.90;;;;;;5005405;28;20026;-76
2024/03/28 06:10:54;;;;;;;8.77;4.40;;;9.40;99.90;;;;;;5004368;28;20275;-71
2024/03/28 06:13:22;;;;;;;7.78;3.53;;;9.40;99.90;;;;;;5003484;28;20030;-74
2024/03/28 06:15:49;;;;;;;3.45;2.58;;;9.50;99.90;;;;;;5003545;28;20095;-74
2024/03/28 06:18:15;;;;;;;3.67;2.53;;;9.40;99.90;;;;;;5003483;28;20112;-74
2024/03/28 06:20:41;;;;;;;4.70;2.55;;;9.40;99.90;;;;;;5002640;28;20117;-75
2024/03/28 06:23:08;;;;;;;4.95;2.28;;;9.50;99.90;;;;;;5002427;28;20037;-74
2024/03/28 06:25:38;;;;;;;3.92;2.45;;;9.60;99.90;;;;;;5004740;28;20033;-76
2024/03/28 06:28:05;;;;;;;4.80;2.42;;;9.70;99.90;;;;;;5002388;28;20064;-75
2024/03/28 06:30:32;;;;;;;4.78;2.33;;;9.60;99.90;;;;;;5004037;28;20045;-76
2024/03/28 06:32:58;;;;;;;4.88;2.30;;;9.70;99.90;;;;;;5004470;28;20454;-74
2024/03/28 06:35:24;;;;;;;3.45;2.53;;;9.60;99.90;;;;;;5005228;28;20032;-69
2024/03/28 06:37:50;;;;;;;2.92;2.30;;;9.40;99.90;;;;;;5004942;28;20497;-74
2024/03/28 06:40:16;;;;;;;4.25;2.47;;;9.20;99.90;;;;;;5002759;28;20033;-73
2024/03/28 06:42:42;;;;;;;3.88;2.60;;;9.10;99.90;;;;;;5004153;28;20033;-73
2024/03/28 06:45:08;;;;;;;5.43;1.92;;;9.10;99.90;;;;;;5003207;28;20045;-75
2024/03/28 06:47:34;;;;;;;2.70;2.10;;;9.10;99.90;;;;;;5003273;28;20034;-77
2024/03/28 06:50:00;;;;;;;2.75;2.10;;;9.20;99.90;;;;;;5004154;28;20057;-71
2024/03/28 06:52:26;;;;;;;3.50;2.67;;;9.10;99.90;;;;;;5000644;28;20103;-82
2024/03/28 06:54:53;;;;;;;3.97;2.90;;;9.10;99.90;;;;;;5000012;28;20026;-76
2024/03/28 06:57:19;;;;;;;4.82;3.25;;;9.20;99.90;;;;;;4984726;28;20150;-72
2024/03/28 06:59:45;;;;;;;4.75;3.58;;;9.00;99.90;;;;;;5003196;28;20100;-74
2024/03/28 07:02:10;;;;;;;4.80;3.75;;;9.10;99.90;;;;;;5001203;28;20038;-68
2024/03/28 07:04:36;;;;;;;4.38;3.60;;;9.10;99.90;;;;;;5003195;28;20038;-70
2024/03/28 07:07:02;;;;;;;5.63;4.47;;;9.00;99.90;;;;;;5000665;28;20061;-73
2024/03/28 07:09:28;;;;;;;4.22;3.40;;;8.80;99.90;;;;;;5003546;28;20096;-72
2024/03/28 07:11:55;;;;;;;7.05;4.72;;;8.90;99.90;;;;;;4979093;28;20050;-76
2024/03/28 07:14:20;;;;;;;6.63;4.47;;;8.80;99.90;;;;;;4997420;28;20137;-77
2024/03/28 07:16:46;;;;;;;5.82;4.30;;;8.80;99.90;;;;;;4998003;28;20076;-69
2024/03/28 07:19:12;;;;;;;5.85;4.05;;;8.90;99.90;;;;;;5002005;28;20493;-69
2024/03/28 07:21:38;;;;;;;5.82;4.10;;;8.90;99.90;;;;;;5002144;28;20030;-73
2024/03/28 07:24:05;;;;;;;6.22;4.22;;;9.10;99.90;;;;;;4999949;28;20068;-71
2024/03/28 07:26:31;;;;;;;4.00;3.40;;;9.00;99.90;;;;;;5001565;28;20052;-67
2024/03/28 07:28:57;;;;;;;4.50;3.80;;;8.80;99.90;;;;;;5000734;28;20033;-67
2024/03/28 07:31:23;;;;;;;4.30;3.45;;;8.70;99.90;;;;;;5002665;28;20041;-74
2024/03/28 07:33:49;;;;;;;4.80;3.28;;;8.50;99.90;;;;;;5001745;28;20058;-67
2024/03/28 07:36:16;;;;;;;3.38;2.88;;;8.50;99.90;;;;;;5001984;28;20022;-67
2024/03/28 07:38:43;;;;;;;4.05;2.95;;;8.60;99.90;;;;;;5001203;28;20021;-68
2024/03/28 07:41:09;;;;;;;4.68;2.72;;;8.60;99.90;;;;;;4999717;28;20033;-73
2024/03/28 07:43:35;;;;;;;4.25;3.13;;;8.50;99.90;;;;;;5001416;28;20038;-75
2024/03/28 07:46:04;;;;;;;3.78;2.95;;;8.60;99.90;;;;;;5002335;28;20073;-71
2024/03/28 07:48:31;;;;;;;4.00;3.05;;;8.60;99.90;;;;;;4994144;28;20125;-71
2024/03/28 07:51:01;;;;;;;7.88;4.18;;;8.60;99.90;;;;;;5000861;28;20085;-70
2024/03/28 07:53:28;;;;;;;3.10;1.90;;;8.80;99.90;;;;;;4999337;28;20044;-71
2024/03/28 07:55:54;;;;;;;3.17;2.60;;;8.90;99.90;;;;;;5001391;28;20460;-72
2024/03/28 07:58:23;;;;;;;2.50;2.17;;;8.90;99.90;;;;;;5000939;28;20471;-76
2024/03/28 08:00:49;;;;;;;3.70;2.20;;;8.70;99.90;;;;;;4992007;28;20038;-71
2024/03/28 08:03:16;;;;;;;2.90;2.60;;;8.70;99.90;;;;;;4984544;28;20026;-71
2024/03/28 08:05:51;;;;;;;2.97;2.58;;;8.80;99.90;;;;;;4984630;28;20022;-72
2024/03/28 08:08:17;;;;;;;2.90;2.40;;;8.70;99.90;;;;;;4986909;28;20782;-74
2024/03/28 08:10:43;;;;;;;3.20;2.90;;;8.40;99.90;;;;;;4984568;28;20043;-70
2024/03/28 08:13:09;;;;;;;3.03;2.60;;;8.20;99.90;;;;;;4987686;28;20041;-74
2024/03/28 08:15:36;;;;;;;2.90;2.65;;;8.10;99.90;;;;;;4982455;28;20748;-70
2024/03/28 08:18:02;;;;;;;3.25;2.78;;;8.20;99.90;;;;;;4985565;28;20041;-69
2024/03/28 08:20:28;;;;;;;3.55;3.20;;;8.30;99.90;;;;;;4984612;28;20041;-73
2024/03/28 08:22:56;;;;;;;2.97;2.40;;;8.60;99.90;;;;;;4986534;28;20088;-70
2024/03/28 08:25:23;;;;;;;3.47;2.80;;;8.80;99.90;;;;;;4983944;28;20034;-68
2024/03/28 08:27:49;;;;;;;2.65;2.45;;;8.80;99.90;;;;;;4985765;28;20030;-67
2024/03/28 08:30:15;;;;;;;2.65;2.45;;;8.80;99.90;;;;;;4984572;28;20117;-73
2024/03/28 08:32:42;;;;;;;2.50;2.28;;;8.90;99.90;;;;;;4986544;28;20624;-70
2024/03/28 08:35:10;;;;;;;3.33;2.42;;;8.80;99.90;;;;;;4987452;28;20085;-69
2024/03/28 08:37:40;;;;;;;4.13;2.22;;;8.90;99.90;;;;;;4986617;28;20033;-73
2024/03/28 08:40:09;;;;;;;2.08;1.88;;;8.90;99.90;;;;;;4986981;28;20033;-70
2024/03/28 08:42:39;;;;;;;1.40;1.30;;;8.90;99.90;;;;;;4986377;28;20520;-69
2024/03/28 08:45:08;;;;;;;1.90;1.70;;;8.90;99.90;;;;;;4987605;28;20634;-70
2024/03/28 08:47:35;;;;;;;2.08;1.30;;;9.10;99.90;;;;;;4987451;28;20045;-67
2024/03/28 08:50:03;;;;;;;3.75;1.25;;;9.40;99.90;;;;;;4986359;28;20034;-70
2024/03/28 08:52:30;;;;;;;0.98;0.98;;;9.60;99.90;;;;;;4986555;28;20030;-70
2024/03/28 08:54:56;;;;;;;1.20;1.10;;;9.80;99.90;;;;;;4984325;28;20406;-69
2024/03/28 08:57:25;;;;;;;1.60;1.05;;;9.70;99.90;;;;;;4987869;28;20040;-77
2024/03/28 08:59:51;;;;;;;0.80;0.70;;;9.70;99.90;;;;;;4985735;28;20088;-69
2024/03/28 09:02:21;;;;;;;0.75;0.60;;;9.90;99.90;;;;;;4986575;28;20548;-68
2024/03/28 09:04:48;;;;;;;1.55;0.52;;;9.80;99.90;;;;;;4983555;28;20398;-77
2024/03/28 09:07:14;;;;;;;0.60;0.60;;;9.80;99.90;;;;;;4986498;28;20034;-72
2024/03/28 09:09:41;;;;;;;0.50;0.40;;;9.80;99.90;;;;;;4985468;28;20037;-72
2024/03/28 09:12:07;;;;;;;0.50;0.50;;;9.90;99.90;;;;;;4987548;28;20813;-69
2024/03/28 09:14:34;;;;;;;0.52;0.52;;;10.00;99.90;;;;;;4985790;28;20030;-69
2024/03/28 09:17:00;;;;;;;0.40;0.40;;;10.00;99.90;;;;;;4984108;28;20536;-70
2024/03/28 09:19:28;;;;;;;5.55;0.63;;;10.00;99.90;;;;;;5001080;28;20456;-68
2024/03/28 09:21:54;;;;;;;1.30;0.30;;;10.30;99.90;;;;;;4985508;28;20799;-70
2024/03/28 09:24:21;;;;;;;0.45;0.38;;;10.50;99.90;;;;;;4985903;28;20170;-70
2024/03/28 09:26:48;;;;;;;0.43;0.30;;;10.60;99.90;;;;;;4986785;28;20030;-70
2024/03/28 09:29:19;;;;;;;0.40;0.40;;;10.70;99.90;;;;;;4986439;28;20034;-70
2024/03/28 09:31:49;;;;;;;0.80;0.45;;;10.70;99.90;;;;;;4983307;28;20034;-70
2024/03/28 09:34:16;;;;;;;2.33;0.40;;;10.90;99.90;;;;;;4984098;28;20750;-70
2024/03/28 09:36:42;;;;;;;4.72;1.88;;;10.70;99.90;;;;;;4985983;28;20033;-70
2024/03/28 09:39:08;;;;;;;0.57;0.38;;;10.50;99.90;;;;;;4986137;28;20030;-69
2024/03/28 09:41:34;;;;;;;0.65;0.20;;;10.60;99.90;;;;;;4986441;28;20057;-69
2024/03/28 09:44:12;;;;;;;0.10;0.10;;;10.70;99.90;;;;;;4980685;28;20026;-71
2024/03/28 09:46:41;;;;;;;0.28;0.28;;;10.60;99.90;;;;;;4986097;28;20041;-76
2024/03/28 09:49:08;;;;;;;0.40;0.35;;;10.60;99.90;;;;;;4986449;28;20026;-79
2024/03/28 09:51:38;;;;;;;0.30;0.30;;;10.50;99.90;;;;;;4986805;28;20033;-73
2024/03/28 09:54:05;;;;;;;0.28;0.28;;;10.70;99.90;;;;;;4985787;28;20548;-76
2024/03/28 09:56:33;;;;;;;0.15;0.15;;;11.00;99.90;;;;;;5000535;28;20033;-71
2024/03/28 09:58:58;;;;;;;0.20;0.20;;;11.50;99.90;;;;;;4988333;28;20038;-75
2024/03/28 10:01:25;;;;;;;0.30;0.30;;;12.20;99.90;;;;;;4988035;28;20029;-75
2024/03/28 10:03:56;;;;;;;1.55;0.20;;;12.60;99.90;;;;;;4987695;28;20029;-74
2024/03/28 10:06:22;;;;;;;0.35;0.35;;;12.60;99.90;;;;;;4986230;28;20026;-72
2024/03/28 10:08:48;;;;;;;3.25;0.20;;;12.70;99.90;;;;;;4984770;28;20508;-75
2024/03/28 10:11:14;;;;;;;0.80;0.55;;;12.90;99.90;;;;;;4985441;28;20030;-76
2024/03/28 10:13:41;;;;;;;0.15;0.15;;;13.00;99.90;;;;;;4984580;28;20835;-77
2024/03/28 10:16:07;;;;;;;2.50;0.30;;;13.00;99.90;;;;;;4986582;28;20172;-73
2024/03/28 10:18:33;;;;;;;0.52;0.10;;;13.20;99.90;;;;;;4990893;28;20113;-74
2024/03/28 10:21:00;;;;;;;0.20;0.20;;;13.70;99.90;;;;;;4991724;28;20026;-76
2024/03/28 10:23:26;;;;;;;1.05;0.60;;;14.00;99.90;;;;;;4987864;28;20034;-72
2024/03/28 10:25:53;;;;;;;4.53;2.90;;;14.50;99.90;;;;;;4988771;28;20493;-72
2024/03/28 10:28:23;;;;;;;2.30;2.10;;;14.90;99.90;;;;;;4989404;28;20077;-71
2024/03/28 10:30:50;;;;;;;0.20;0.20;;;15.20;98.40;;;;;;4988390;28;20049;-72
2024/03/28 10:33:16;;;;;;;0.20;0.10;;;14.90;98.30;;;;;;4986851;28;20560;-72
2024/03/28 10:35:42;;;;;;;0.70;0.68;;;14.70;98.30;;;;;;4989151;28;20054;-71
2024/03/28 10:38:12;;;;;;;6.25;3.17;;;14.50;99.10;;;;;;4989704;28;20036;-71
2024/03/28 10:40:38;;;;;;;0.10;0.10;;;14.30;99.90;;;;;;4989081;28;20036;-72
2024/03/28 10:43:09;;;;;;;0.50;0.30;;;14.50;99.30;;;;;;4989164;28;20058;-71
2024/03/28 10:45:38;;;;;;;0.82;0.35;;;14.80;98.70;;;;;;4987933;28;20041;-72
2024/03/28 10:48:13;;;;;;;0.65;0.50;;;14.70;98.20;;;;;;4989708;28;20036;-72
2024/03/28 10:51:04;;;;;;;1.27;0.43;;;15.20;98.90;;;;;;4989041;28;20061;-72
2024/03/28 10:53:36;;;;;;;2.10;1.27;;;15.60;97.40;;;;;;4987888;28;20038;-72
2024/03/28 10:56:09;;;;;;;0.47;0.38;;;16.30;96.20;;;;;;4988070;28;20034;-72
2024/03/28 10:58:36;;;;;;;20.70;6.38;;;16.50;95.30;;;;;;4989592;28;20029;-76
2024/03/28 11:01:02;;;;;;;0.43;0.32;;;16.80;95.00;;;;;;4987721;28;20038;-70
2024/03/28 11:03:30;;;;;;;2.20;0.75;;;16.90;93.30;;;;;;4987438;28;20030;-72
2024/03/28 11:05:58;;;;;;;0.85;0.50;;;16.60;93.00;;;;;;4987972;28;20030;-72
2024/03/28 11:08:27;;;;;;;2.13;1.10;;;16.60;94.10;;;;;;4989139;28;20833;-72
2024/03/28 11:10:54;;;;;;;2.03;0.93;;;16.50;94.40;;;;;;4988961;28;20030;-72
2024/03/28 11:13:20;;;;;;;1.02;0.43;;;16.20;93.90;;;;;;4988614;28;20037;-72
2024/03/28 11:15:46;;;;;;;3.55;1.85;;;15.80;95.10;;;;;;4987435;28;20038;-73
2024/03/28 11:18:14;;;;;;;0.55;0.55;;;15.60;94.90;;;;;;4989483;28;20022;-71
2024/03/28 11:20:49;;;;;;;1.85;1.00;;;15.20;94.40;;;;;;4990352;28;20045;-72
2024/03/28 11:23:15;;;;;;;0.70;0.70;;;14.90;95.30;;;;;;4987990;28;20061;-73
2024/03/28 11:25:46;;;;;;;0.85;0.80;;;14.70;95.10;;;;;;4987450;28;20038;-75
2024/03/28 11:28:13;;;;;;;2.08;0.95;;;14.70;96.40;;;;;;4988002;28;20026;-75
2024/03/28 11:30:51;;;;;;;5.10;3.40;;;14.90;96.80;;;;;;4987419;28;20080;-75
2024/03/28 11:33:28;;;;;;;6.40;2.92;;;14.90;96.90;;;;;;4987964;28;20102;-72
2024/03/28 11:35:58;;;;;;;0.98;0.90;;;15.00;97.20;;;;;;4988520;28;20160;-69
2024/03/28 11:38:24;;;;;;;1.48;1.00;;;15.00;95.80;;;;;;4985800;28;20100;-69
2024/03/28 11:40:51;;;;;;;0.88;0.85;;;15.00;97.00;;;;;;4987071;28;20038;-70
2024/03/28 11:43:19;;;;;;;3.25;1.00;;;15.10;95.60;;;;;;4988865;28;20053;-70
2024/03/28 11:45:51;;;;;;;1.20;1.10;;;15.10;95.60;;;;;;4986362;28;20030;-70
2024/03/28 11:48:17;;;;;;;1.17;1.08;;;15.30;94.90;;;;;;4986223;28;20046;-70
2024/03/28 11:50:44;;;;;;;1.45;1.25;;;15.50;95.00;;;;;;4988088;28;20034;-70
2024/03/28 11:53:11;;;;;;;1.45;1.23;;;15.50;95.70;;;;;;4984915;28;20042;-70
2024/03/28 11:55:45;;;;;;;2.22;1.48;;;15.30;94.00;;;;;;4986733;28;20128;-69
2024/03/28 11:58:15;;;;;;;1.50;1.30;;;15.00;95.20;;;;;;4986470;28;20073;-69
2024/03/28 12:00:41;;;;;;;1.80;1.33;;;14.80;94.90;;;;;;4984302;28;20118;-69
2024/03/28 12:03:07;;;;;;;2.30;1.48;;;14.90;95.40;;;;;;4987291;28;20050;-70
2024/03/28 12:05:33;;;;;;;3.75;1.30;;;14.90;95.60;;;;;;4986329;28;20163;-70
2024/03/28 12:07:59;;;;;;;1.40;1.30;;;14.80;95.60;;;;;;4986922;28;20053;-70
2024/03/28 12:10:25;;;;;;;2.60;1.65;;;14.50;95.60;;;;;;4988474;28;20076;-70
2024/03/28 12:12:51;;;;;;;1.33;0.95;;;14.50;96.20;;;;;;4987444;28;20440;-70
2024/03/28 12:15:17;;;;;;;1.35;1.08;;;14.60;96.10;;;;;;4988206;28;20549;-74
2024/03/28 12:17:43;;;;;;;2.38;0.95;;;14.60;95.00;;;;;;4989484;28;20473;-70
2024/03/28 12:20:20;;;;;;;1.15;0.98;;;14.60;96.30;;;;;;4987359;28;20189;-70
2024/03/28 12:22:49;;;;;;;0.73;0.68;;;14.50;96.00;;;;;;4984767;28;20116;-70
2024/03/28 12:25:15;;;;;;;2.40;1.02;;;14.50;95.70;;;;;;4988214;28;20496;-70
2024/03/28 12:27:42;;;;;;;3.20;1.25;;;14.40;93.90;;;;;;4986348;28;20457;-69
2024/03/28 12:30:12;;;;;;;0.73;0.70;;;14.50;93.80;;;;;;4987459;28;20026;-70
2024/03/28 12:32:39;;;;;;;0.80;0.70;;;14.80;94.20;;;;;;4988997;28;20033;-70
2024/03/28 12:35:06;;;;;;;0.80;0.70;;;14.90;92.90;;;;;;4987185;28;20040;-70
2024/03/28 12:37:35;;;;;;;1.20;0.70;;;14.80;94.20;;;;;;4984704;28;20037;-70
2024/03/28 12:40:13;;;;;;;2.42;1.55;;;14.80;93.40;;;;;;4985971;28;20080;-69
2024/03/28 12:42:44;;;;;;;14.73;7.68;;;14.60;93.00;;;;;;4988687;28;20080;-68
2024/03/28 12:45:16;;;;;;;3.42;2.15;;;14.60;93.00;;;;;;4988039;28;20032;-71
2024/03/28 12:47:45;;;;;;;4.60;3.47;;;14.30;93.20;;;;;;4986445;28;20128;-70
2024/03/28 12:50:17;;;;;;;3.72;2.53;;;14.20;94.40;;;;;;4986694;28;20042;-70